sensor_id;sensor_type;location;lat;lon;timestamp;P1;durP1;ratioP1;P2;durP2;ratioP2
18338;SDS011;9295;44.484;11.240;2023-04-01T00:01:09;14.43;;;6.57;;
18338;SDS011;9295;44.484;11.240;2023-04-01T00:03:40;10.80;;;6.77;;
18338;SDS011;9295;44.484;11.240;2023-04-01T00:06:09;11.83;;;7.40;;
18338;SDS011;9295;44.484;11.240;2023-04-01T00:08:41;18.63;;;6.90;;
18338;SDS011;9295;44.484;11.240;2023-04-01T00:11:11;14.17;;;7.27;;
18338;SDS011;9295;44.484;11.240;2023-04-01T00:13:39;14.53;;;6.40;;
18338;SDS011;9295;44.484;11.240;2023-04-01T00:16:08;14.57;;;6.83;;
18338;SDS011;9295;44.484;11.240;2023-04-01T00:18:47;9.40;;;6.47;;
18338;SDS011;9295;44.484;11.240;2023-04-01T00:21:17;12.10;;;5.67;;
18338;SDS011;9295;44.484;11.240;2023-04-01T00:23:48;9.67;;;5.97;;
18338;SDS011;9295;44.484;11.240;2023-04-01T00:26:17;11.53;;;6.03;;
18338;SDS011;9295;44.484;11.240;2023-04-01T00:28:48;7.80;;;5.10;;
18338;SDS011;9295;44.484;11.240;2023-04-01T00:31:16;10.73;;;5.40;;
18338;SDS011;9295;44.484;11.240;2023-04-01T00:33:45;8.97;;;5.30;;
18338;SDS011;9295;44.484;11.240;2023-04-01T00:36:14;8.10;;;5.27;;
18338;SDS011;9295;44.484;11.240;2023-04-01T00:38:44;15.60;;;5.30;;
18338;SDS011;9295;44.484;11.240;2023-04-01T00:41:14;9.10;;;5.40;;
18338;SDS011;9295;44.484;11.240;2023-04-01T00:43:45;9.60;;;5.07;;
18338;SDS011;9295;44.484;11.240;2023-04-01T00:46:14;16.53;;;5.73;;
18338;SDS011;9295;44.484;11.240;2023-04-01T00:48:44;9.83;;;6.37;;
18338;SDS011;9295;44.484;11.240;2023-04-01T00:51:16;12.03;;;7.17;;
18338;SDS011;9295;44.484;11.240;2023-04-01T00:53:47;12.67;;;7.83;;
18338;SDS011;9295;44.484;11.240;2023-04-01T00:56:20;14.40;;;8.13;;
18338;SDS011;9295;44.484;11.240;2023-04-01T00:58:54;16.10;;;7.80;;
18338;SDS011;9295;44.484;11.240;2023-04-01T01:01:26;10.73;;;6.93;;
18338;SDS011;9295;44.484;11.240;2023-04-01T01:03:57;12.27;;;9.13;;
18338;SDS011;9295;44.484;11.240;2023-04-01T01:06:30;13.60;;;9.63;;
18338;SDS011;9295;44.484;11.240;2023-04-01T01:09:25;32.83;;;12.90;;
18338;SDS011;9295;44.484;11.240;2023-04-01T01:12:03;18.07;;;11.73;;
18338;SDS011;9295;44.484;11.240;2023-04-01T01:14:39;24.43;;;13.40;;
18338;SDS011;9295;44.484;11.240;2023-04-01T01:17:19;27.73;;;14.10;;
18338;SDS011;9295;44.484;11.240;2023-04-01T01:19:57;19.33;;;12.30;;
18338;SDS011;9295;44.484;11.240;2023-04-01T01:22:56;36.63;;;14.80;;
18338;SDS011;9295;44.484;11.240;2023-04-01T01:25:43;20.70;;;12.37;;
18338;SDS011;9295;44.484;11.240;2023-04-01T01:28:25;22.80;;;13.43;;
18338;SDS011;9295;44.484;11.240;2023-04-01T01:31:02;27.10;;;13.73;;
18338;SDS011;9295;44.484;11.240;2023-04-01T01:33:43;29.07;;;13.57;;
18338;SDS011;9295;44.484;11.240;2023-04-01T01:36:27;19.67;;;12.80;;
18338;SDS011;9295;44.484;11.240;2023-04-01T01:39:03;22.63;;;13.30;;
18338;SDS011;9295;44.484;11.240;2023-04-01T01:41:33;23.50;;;12.50;;
18338;SDS011;9295;44.484;11.240;2023-04-01T01:44:04;21.90;;;13.33;;
18338;SDS011;9295;44.484;11.240;2023-04-01T01:46:36;16.93;;;11.93;;
18338;SDS011;9295;44.484;11.240;2023-04-01T01:49:06;20.80;;;12.00;;
18338;SDS011;9295;44.484;11.240;2023-04-01T01:51:39;19.33;;;10.83;;
18338;SDS011;9295;44.484;11.240;2023-04-01T01:54:12;18.50;;;11.00;;
18338;SDS011;9295;44.484;11.240;2023-04-01T01:56:41;18.43;;;11.57;;
18338;SDS011;9295;44.484;11.240;2023-04-01T01:59:10;25.80;;;14.33;;
18338;SDS011;9295;44.484;11.240;2023-04-01T02:01:45;20.17;;;13.40;;
18338;SDS011;9295;44.484;11.240;2023-04-01T02:04:17;23.17;;;12.50;;
18338;SDS011;9295;44.484;11.240;2023-04-01T02:06:50;22.57;;;12.23;;
18338;SDS011;9295;44.484;11.240;2023-04-01T02:09:23;17.33;;;11.00;;
18338;SDS011;9295;44.484;11.240;2023-04-01T02:11:55;16.10;;;10.73;;
18338;SDS011;9295;44.484;11.240;2023-04-01T02:14:26;19.67;;;11.07;;
18338;SDS011;9295;44.484;11.240;2023-04-01T02:16:57;16.97;;;10.17;;
18338;SDS011;9295;44.484;11.240;2023-04-01T02:19:31;15.50;;;9.40;;
18338;SDS011;9295;44.484;11.240;2023-04-01T02:22:05;14.60;;;9.90;;
18338;SDS011;9295;44.484;11.240;2023-04-01T02:24:37;16.53;;;8.73;;
18338;SDS011;9295;44.484;11.240;2023-04-01T02:27:08;11.97;;;9.00;;
18338;SDS011;9295;44.484;11.240;2023-04-01T02:29:37;15.17;;;9.47;;
18338;SDS011;9295;44.484;11.240;2023-04-01T02:32:07;15.40;;;9.53;;
18338;SDS011;9295;44.484;11.240;2023-04-01T02:34:37;15.70;;;10.13;;
18338;SDS011;9295;44.484;11.240;2023-04-01T02:37:07;19.57;;;10.40;;
18338;SDS011;9295;44.484;11.240;2023-04-01T02:39:36;16.17;;;10.80;;
18338;SDS011;9295;44.484;11.240;2023-04-01T02:42:05;21.10;;;11.87;;
18338;SDS011;9295;44.484;11.240;2023-04-01T02:44:33;17.93;;;12.20;;
18338;SDS011;9295;44.484;11.240;2023-04-01T02:47:02;18.10;;;11.93;;
18338;SDS011;9295;44.484;11.240;2023-04-01T02:49:31;20.10;;;12.50;;
18338;SDS011;9295;44.484;11.240;2023-04-01T02:51:59;18.10;;;11.17;;
18338;SDS011;9295;44.484;11.240;2023-04-01T02:54:29;18.90;;;13.20;;
18338;SDS011;9295;44.484;11.240;2023-04-01T02:56:57;22.37;;;14.00;;
18338;SDS011;9295;44.484;11.240;2023-04-01T02:59:26;27.57;;;17.17;;
18338;SDS011;9295;44.484;11.240;2023-04-01T03:01:54;32.17;;;16.50;;
18338;SDS011;9295;44.484;11.240;2023-04-01T03:04:23;28.53;;;17.03;;
18338;SDS011;9295;44.484;11.240;2023-04-01T03:06:51;28.23;;;20.10;;
18338;SDS011;9295;44.484;11.240;2023-04-01T03:09:20;38.77;;;22.47;;
18338;SDS011;9295;44.484;11.240;2023-04-01T03:11:49;33.67;;;22.30;;
18338;SDS011;9295;44.484;11.240;2023-04-01T03:14:18;34.27;;;21.40;;
18338;SDS011;9295;44.484;11.240;2023-04-01T03:16:46;40.67;;;23.97;;
18338;SDS011;9295;44.484;11.240;2023-04-01T03:19:15;34.77;;;21.93;;
18338;SDS011;9295;44.484;11.240;2023-04-01T03:21:43;30.60;;;20.50;;
18338;SDS011;9295;44.484;11.240;2023-04-01T03:24:12;30.60;;;17.30;;
18338;SDS011;9295;44.484;11.240;2023-04-01T03:26:40;26.87;;;17.30;;
18338;SDS011;9295;44.484;11.240;2023-04-01T03:29:10;23.87;;;15.30;;
18338;SDS011;9295;44.484;11.240;2023-04-01T03:31:38;26.70;;;16.63;;
18338;SDS011;9295;44.484;11.240;2023-04-01T03:34:07;29.43;;;17.57;;
18338;SDS011;9295;44.484;11.240;2023-04-01T03:36:36;33.37;;;18.90;;
18338;SDS011;9295;44.484;11.240;2023-04-01T03:39:04;28.40;;;19.00;;
18338;SDS011;9295;44.484;11.240;2023-04-01T03:41:39;31.33;;;19.20;;
18338;SDS011;9295;44.484;11.240;2023-04-01T03:44:09;28.83;;;18.90;;
18338;SDS011;9295;44.484;11.240;2023-04-01T03:46:38;32.90;;;19.43;;
18338;SDS011;9295;44.484;11.240;2023-04-01T03:49:07;42.93;;;27.10;;
18338;SDS011;9295;44.484;11.240;2023-04-01T03:51:38;39.90;;;26.63;;
18338;SDS011;9295;44.484;11.240;2023-04-01T03:54:07;41.23;;;27.90;;
18338;SDS011;9295;44.484;11.240;2023-04-01T03:56:36;42.67;;;28.30;;
18338;SDS011;9295;44.484;11.240;2023-04-01T03:59:05;55.30;;;31.77;;
18338;SDS011;9295;44.484;11.240;2023-04-01T04:01:36;46.40;;;30.73;;
18338;SDS011;9295;44.484;11.240;2023-04-01T04:04:04;51.20;;;31.30;;
18338;SDS011;9295;44.484;11.240;2023-04-01T04:06:33;48.67;;;31.10;;
18338;SDS011;9295;44.484;11.240;2023-04-01T04:09:01;53.20;;;33.07;;
18338;SDS011;9295;44.484;11.240;2023-04-01T04:11:30;51.33;;;33.47;;
18338;SDS011;9295;44.484;11.240;2023-04-01T04:14:00;45.23;;;31.23;;
18338;SDS011;9295;44.484;11.240;2023-04-01T04:16:29;45.43;;;30.80;;
18338;SDS011;9295;44.484;11.240;2023-04-01T04:19:02;40.63;;;26.07;;
18338;SDS011;9295;44.484;11.240;2023-04-01T04:21:31;42.40;;;25.37;;
18338;SDS011;9295;44.484;11.240;2023-04-01T04:23:59;37.43;;;26.37;;
18338;SDS011;9295;44.484;11.240;2023-04-01T04:26:47;44.37;;;27.50;;
18338;SDS011;9295;44.484;11.240;2023-04-01T04:29:15;49.67;;;29.40;;
18338;SDS011;9295;44.484;11.240;2023-04-01T04:31:44;39.60;;;27.80;;
18338;SDS011;9295;44.484;11.240;2023-04-01T04:34:14;41.53;;;28.20;;
18338;SDS011;9295;44.484;11.240;2023-04-01T04:36:42;37.10;;;27.27;;
18338;SDS011;9295;44.484;11.240;2023-04-01T04:39:11;40.83;;;27.03;;
18338;SDS011;9295;44.484;11.240;2023-04-01T04:41:41;36.87;;;22.80;;
18338;SDS011;9295;44.484;11.240;2023-04-01T04:44:09;43.83;;;23.70;;
18338;SDS011;9295;44.484;11.240;2023-04-01T04:46:38;32.27;;;22.80;;
18338;SDS011;9295;44.484;11.240;2023-04-01T04:49:14;37.50;;;25.07;;
18338;SDS011;9295;44.484;11.240;2023-04-01T04:51:42;38.13;;;24.63;;
18338;SDS011;9295;44.484;11.240;2023-04-01T04:54:13;45.30;;;26.63;;
18338;SDS011;9295;44.484;11.240;2023-04-01T04:56:54;44.13;;;29.07;;
18338;SDS011;9295;44.484;11.240;2023-04-01T04:59:24;42.53;;;28.90;;
18338;SDS011;9295;44.484;11.240;2023-04-01T05:02:12;42.73;;;28.27;;
18338;SDS011;9295;44.484;11.240;2023-04-01T05:04:42;43.53;;;25.43;;
18338;SDS011;9295;44.484;11.240;2023-04-01T05:07:10;39.20;;;24.20;;
18338;SDS011;9295;44.484;11.240;2023-04-01T05:09:39;34.00;;;22.40;;
18338;SDS011;9295;44.484;11.240;2023-04-01T05:12:08;26.83;;;17.70;;
18338;SDS011;9295;44.484;11.240;2023-04-01T05:14:54;25.27;;;18.23;;
18338;SDS011;9295;44.484;11.240;2023-04-01T05:17:23;28.20;;;17.30;;
18338;SDS011;9295;44.484;11.240;2023-04-01T05:19:53;25.57;;;16.17;;
18338;SDS011;9295;44.484;11.240;2023-04-01T05:22:21;29.50;;;16.70;;
18338;SDS011;9295;44.484;11.240;2023-04-01T05:24:50;27.63;;;16.73;;
18338;SDS011;9295;44.484;11.240;2023-04-01T05:27:18;25.40;;;16.43;;
18338;SDS011;9295;44.484;11.240;2023-04-01T05:29:47;35.93;;;17.70;;
18338;SDS011;9295;44.484;11.240;2023-04-01T05:32:40;29.40;;;16.80;;
18338;SDS011;9295;44.484;11.240;2023-04-01T05:35:11;28.93;;;18.70;;
18338;SDS011;9295;44.484;11.240;2023-04-01T05:37:39;32.17;;;18.80;;
18338;SDS011;9295;44.484;11.240;2023-04-01T05:40:08;36.27;;;23.60;;
18338;SDS011;9295;44.484;11.240;2023-04-01T05:42:38;35.43;;;22.07;;
18338;SDS011;9295;44.484;11.240;2023-04-01T05:45:06;36.37;;;22.57;;
18338;SDS011;9295;44.484;11.240;2023-04-01T05:47:47;38.00;;;22.57;;
18338;SDS011;9295;44.484;11.240;2023-04-01T05:50:18;35.03;;;22.13;;
18338;SDS011;9295;44.484;11.240;2023-04-01T05:52:47;35.10;;;21.30;;
18338;SDS011;9295;44.484;11.240;2023-04-01T05:55:16;35.50;;;21.60;;
18338;SDS011;9295;44.484;11.240;2023-04-01T05:57:45;45.30;;;22.10;;
18338;SDS011;9295;44.484;11.240;2023-04-01T06:00:15;29.93;;;20.87;;
18338;SDS011;9295;44.484;11.240;2023-04-01T06:02:47;33.90;;;21.73;;
18338;SDS011;9295;44.484;11.240;2023-04-01T06:05:17;25.33;;;18.87;;
18338;SDS011;9295;44.484;11.240;2023-04-01T06:07:48;21.53;;;15.40;;
18338;SDS011;9295;44.484;11.240;2023-04-01T06:10:21;27.37;;;16.77;;
18338;SDS011;9295;44.484;11.240;2023-04-01T06:12:59;33.10;;;20.63;;
18338;SDS011;9295;44.484;11.240;2023-04-01T06:15:38;31.50;;;22.20;;
18338;SDS011;9295;44.484;11.240;2023-04-01T06:18:19;22.60;;;15.47;;
18338;SDS011;9295;44.484;11.240;2023-04-01T06:21:07;17.40;;;13.97;;
18338;SDS011;9295;44.484;11.240;2023-04-01T06:24:05;29.77;;;16.47;;
18338;SDS011;9295;44.484;11.240;2023-04-01T06:26:43;24.60;;;15.10;;
18338;SDS011;9295;44.484;11.240;2023-04-01T06:29:33;27.10;;;14.87;;
18338;SDS011;9295;44.484;11.240;2023-04-01T06:32:18;27.00;;;15.00;;
18338;SDS011;9295;44.484;11.240;2023-04-01T06:35:17;21.37;;;13.63;;
18338;SDS011;9295;44.484;11.240;2023-04-01T06:43:58;15.03;;;10.47;;
18338;SDS011;9295;44.484;11.240;2023-04-01T06:46:52;16.90;;;11.23;;
18338;SDS011;9295;44.484;11.240;2023-04-01T06:49:46;14.43;;;11.13;;
18338;SDS011;9295;44.484;11.240;2023-04-01T06:52:57;17.67;;;11.80;;
18338;SDS011;9295;44.484;11.240;2023-04-01T06:55:52;14.77;;;11.53;;
18338;SDS011;9295;44.484;11.240;2023-04-01T06:58:39;23.47;;;11.77;;
18338;SDS011;9295;44.484;11.240;2023-04-01T07:01:10;18.23;;;11.27;;
18338;SDS011;9295;44.484;11.240;2023-04-01T07:03:44;18.83;;;12.53;;
18338;SDS011;9295;44.484;11.240;2023-04-01T07:06:24;16.33;;;10.40;;
18338;SDS011;9295;44.484;11.240;2023-04-01T07:08:58;19.87;;;11.63;;
18338;SDS011;9295;44.484;11.240;2023-04-01T07:11:53;18.30;;;11.30;;
18338;SDS011;9295;44.484;11.240;2023-04-01T07:14:45;18.13;;;12.23;;
18338;SDS011;9295;44.484;11.240;2023-04-01T07:17:17;15.60;;;11.80;;
18338;SDS011;9295;44.484;11.240;2023-04-01T07:19:50;14.97;;;11.70;;
18338;SDS011;9295;44.484;11.240;2023-04-01T07:22:27;18.20;;;12.43;;
18338;SDS011;9295;44.484;11.240;2023-04-01T07:25:11;21.77;;;15.50;;
18338;SDS011;9295;44.484;11.240;2023-04-01T07:27:45;20.20;;;15.47;;
18338;SDS011;9295;44.484;11.240;2023-04-01T07:30:14;23.27;;;16.97;;
18338;SDS011;9295;44.484;11.240;2023-04-01T07:32:46;22.07;;;17.10;;
18338;SDS011;9295;44.484;11.240;2023-04-01T07:35:22;22.77;;;15.83;;
18338;SDS011;9295;44.484;11.240;2023-04-01T07:40:47;20.13;;;16.80;;
18338;SDS011;9295;44.484;11.240;2023-04-01T07:43:37;27.97;;;17.07;;
18338;SDS011;9295;44.484;11.240;2023-04-01T07:46:39;21.33;;;16.10;;
18338;SDS011;9295;44.484;11.240;2023-04-01T07:49:22;23.67;;;17.30;;
18338;SDS011;9295;44.484;11.240;2023-04-01T07:51:58;25.63;;;18.27;;
18338;SDS011;9295;44.484;11.240;2023-04-01T07:54:33;24.70;;;17.83;;
18338;SDS011;9295;44.484;11.240;2023-04-01T07:57:11;22.27;;;17.37;;
18338;SDS011;9295;44.484;11.240;2023-04-01T07:59:51;22.97;;;15.87;;
18338;SDS011;9295;44.484;11.240;2023-04-01T08:03:04;19.90;;;15.23;;
18338;SDS011;9295;44.484;11.240;2023-04-01T08:05:46;20.67;;;15.70;;
18338;SDS011;9295;44.484;11.240;2023-04-01T08:08:24;22.53;;;16.10;;
18338;SDS011;9295;44.484;11.240;2023-04-01T08:11:25;18.83;;;14.67;;
18338;SDS011;9295;44.484;11.240;2023-04-01T08:14:21;27.03;;;14.87;;
18338;SDS011;9295;44.484;11.240;2023-04-01T08:17:22;17.97;;;13.10;;
18338;SDS011;9295;44.484;11.240;2023-04-01T08:20:01;18.27;;;12.73;;
18338;SDS011;9295;44.484;11.240;2023-04-01T08:22:47;16.20;;;11.43;;
18338;SDS011;9295;44.484;11.240;2023-04-01T08:25:28;26.50;;;10.17;;
18338;SDS011;9295;44.484;11.240;2023-04-01T08:28:00;15.90;;;11.03;;
18338;SDS011;9295;44.484;11.240;2023-04-01T08:30:38;18.97;;;11.10;;
18338;SDS011;9295;44.484;11.240;2023-04-01T08:33:18;22.40;;;12.60;;
18338;SDS011;9295;44.484;11.240;2023-04-01T08:35:55;15.07;;;11.13;;
18338;SDS011;9295;44.484;11.240;2023-04-01T08:38:28;17.87;;;11.60;;
18338;SDS011;9295;44.484;11.240;2023-04-01T08:41:00;22.30;;;12.20;;
18338;SDS011;9295;44.484;11.240;2023-04-01T08:44:04;22.83;;;12.83;;
18338;SDS011;9295;44.484;11.240;2023-04-01T08:46:56;20.77;;;12.00;;
18338;SDS011;9295;44.484;11.240;2023-04-01T08:53:00;22.93;;;15.63;;
18338;SDS011;9295;44.484;11.240;2023-04-01T08:55:40;27.67;;;16.40;;
18338;SDS011;9295;44.484;11.240;2023-04-01T09:04:58;24.87;;;14.40;;
18338;SDS011;9295;44.484;11.240;2023-04-01T09:07:51;25.97;;;15.60;;
18338;SDS011;9295;44.484;11.240;2023-04-01T09:10:36;24.03;;;14.40;;
18338;SDS011;9295;44.484;11.240;2023-04-01T09:19:38;22.10;;;13.13;;
18338;SDS011;9295;44.484;11.240;2023-04-01T09:25:23;25.70;;;14.60;;
18338;SDS011;9295;44.484;11.240;2023-04-01T09:28:01;21.50;;;13.10;;
18338;SDS011;9295;44.484;11.240;2023-04-01T09:30:46;23.63;;;15.30;;
18338;SDS011;9295;44.484;11.240;2023-04-01T09:36:56;23.97;;;14.97;;
18338;SDS011;9295;44.484;11.240;2023-04-01T09:39:44;21.77;;;12.20;;
18338;SDS011;9295;44.484;11.240;2023-04-01T09:42:32;19.70;;;12.70;;
18338;SDS011;9295;44.484;11.240;2023-04-01T09:45:27;23.53;;;11.33;;
18338;SDS011;9295;44.484;11.240;2023-04-01T09:48:13;21.27;;;11.80;;
18338;SDS011;9295;44.484;11.240;2023-04-01T09:50:51;18.43;;;12.00;;
18338;SDS011;9295;44.484;11.240;2023-04-01T09:53:32;18.97;;;11.90;;
18338;SDS011;9295;44.484;11.240;2023-04-01T09:56:18;15.83;;;11.20;;
18338;SDS011;9295;44.484;11.240;2023-04-01T09:59:16;15.90;;;9.90;;
18338;SDS011;9295;44.484;11.240;2023-04-01T10:08:48;13.63;;;9.13;;
18338;SDS011;9295;44.484;11.240;2023-04-01T10:11:52;16.10;;;10.60;;
18338;SDS011;9295;44.484;11.240;2023-04-01T10:17:53;17.03;;;10.53;;
18338;SDS011;9295;44.484;11.240;2023-04-01T10:20:43;16.37;;;10.83;;
18338;SDS011;9295;44.484;11.240;2023-04-01T10:23:31;22.90;;;10.00;;
18338;SDS011;9295;44.484;11.240;2023-04-01T10:26:36;22.13;;;10.63;;
18338;SDS011;9295;44.484;11.240;2023-04-01T10:33:18;14.47;;;10.27;;
18338;SDS011;9295;44.484;11.240;2023-04-01T10:36:25;14.10;;;8.10;;
18338;SDS011;9295;44.484;11.240;2023-04-01T10:48:52;14.07;;;8.67;;
18338;SDS011;9295;44.484;11.240;2023-04-01T10:52:01;16.23;;;10.10;;
18338;SDS011;9295;44.484;11.240;2023-04-01T10:55:10;14.30;;;8.77;;
18338;SDS011;9295;44.484;11.240;2023-04-01T11:28:23;14.67;;;6.10;;
18338;SDS011;9295;44.484;11.240;2023-04-01T11:34:11;9.50;;;6.17;;
18338;SDS011;9295;44.484;11.240;2023-04-01T11:36:51;11.53;;;5.97;;
18338;SDS011;9295;44.484;11.240;2023-04-01T11:39:32;8.90;;;5.63;;
18338;SDS011;9295;44.484;11.240;2023-04-01T11:42:24;13.50;;;5.90;;
18338;SDS011;9295;44.484;11.240;2023-04-01T11:45:23;9.77;;;5.50;;
18338;SDS011;9295;44.484;11.240;2023-04-01T11:51:13;8.53;;;4.70;;
18338;SDS011;9295;44.484;11.240;2023-04-01T11:54:06;7.17;;;4.10;;
18338;SDS011;9295;44.484;11.240;2023-04-01T11:56:49;9.93;;;4.53;;
18338;SDS011;9295;44.484;11.240;2023-04-01T12:02:42;6.70;;;3.50;;
18338;SDS011;9295;44.484;11.240;2023-04-01T12:05:21;12.73;;;4.60;;
18338;SDS011;9295;44.484;11.240;2023-04-01T12:08:08;7.60;;;3.47;;
18338;SDS011;9295;44.484;11.240;2023-04-01T12:10:44;9.50;;;4.30;;
18338;SDS011;9295;44.484;11.240;2023-04-01T12:13:22;6.23;;;3.23;;
18338;SDS011;9295;44.484;11.240;2023-04-01T12:16:03;5.03;;;3.03;;
18338;SDS011;9295;44.484;11.240;2023-04-01T12:18:45;5.77;;;3.03;;
18338;SDS011;9295;44.484;11.240;2023-04-01T12:21:21;4.23;;;2.33;;
18338;SDS011;9295;44.484;11.240;2023-04-01T12:30:09;5.90;;;3.00;;
18338;SDS011;9295;44.484;11.240;2023-04-01T12:32:51;5.20;;;3.00;;
18338;SDS011;9295;44.484;11.240;2023-04-01T12:35:29;5.00;;;3.40;;
18338;SDS011;9295;44.484;11.240;2023-04-01T12:38:11;7.53;;;3.50;;
18338;SDS011;9295;44.484;11.240;2023-04-01T12:40:51;6.40;;;3.13;;
18338;SDS011;9295;44.484;11.240;2023-04-01T12:43:49;5.10;;;2.40;;
18338;SDS011;9295;44.484;11.240;2023-04-01T12:46:52;4.20;;;2.63;;
18338;SDS011;9295;44.484;11.240;2023-04-01T12:49:43;12.33;;;3.07;;
18338;SDS011;9295;44.484;11.240;2023-04-01T12:52:25;4.73;;;3.20;;
18338;SDS011;9295;44.484;11.240;2023-04-01T13:01:10;4.20;;;2.10;;
18338;SDS011;9295;44.484;11.240;2023-04-01T13:04:08;3.47;;;2.03;;
18338;SDS011;9295;44.484;11.240;2023-04-01T13:07:03;3.20;;;2.13;;
18338;SDS011;9295;44.484;11.240;2023-04-01T13:09:45;4.07;;;2.30;;
18338;SDS011;9295;44.484;11.240;2023-04-01T13:12:29;5.27;;;2.70;;
18338;SDS011;9295;44.484;11.240;2023-04-01T13:18:04;5.77;;;3.10;;
18338;SDS011;9295;44.484;11.240;2023-04-01T13:20:47;5.00;;;3.20;;
18338;SDS011;9295;44.484;11.240;2023-04-01T13:23:28;5.03;;;3.17;;
18338;SDS011;9295;44.484;11.240;2023-04-01T13:26:06;6.27;;;3.10;;
18338;SDS011;9295;44.484;11.240;2023-04-01T13:28:43;11.57;;;2.93;;
18338;SDS011;9295;44.484;11.240;2023-04-01T13:31:25;6.47;;;3.03;;
18338;SDS011;9295;44.484;11.240;2023-04-01T13:34:08;6.20;;;2.67;;
18338;SDS011;9295;44.484;11.240;2023-04-01T13:36:50;4.70;;;2.80;;
18338;SDS011;9295;44.484;11.240;2023-04-01T13:39:33;4.40;;;2.30;;
18338;SDS011;9295;44.484;11.240;2023-04-01T13:42:12;3.70;;;2.07;;
18338;SDS011;9295;44.484;11.240;2023-04-01T13:44:46;2.60;;;1.70;;
18338;SDS011;9295;44.484;11.240;2023-04-01T13:47:40;3.23;;;1.63;;
18338;SDS011;9295;44.484;11.240;2023-04-01T13:50:45;3.07;;;1.40;;
18338;SDS011;9295;44.484;11.240;2023-04-01T13:56:38;2.60;;;1.27;;
18338;SDS011;9295;44.484;11.240;2023-04-01T13:59:29;2.93;;;1.20;;
18338;SDS011;9295;44.484;11.240;2023-04-01T14:05:15;4.27;;;1.70;;
18338;SDS011;9295;44.484;11.240;2023-04-01T14:08:13;4.40;;;1.77;;
18338;SDS011;9295;44.484;11.240;2023-04-01T14:10:51;5.93;;;2.00;;
18338;SDS011;9295;44.484;11.240;2023-04-01T14:13:31;3.43;;;2.00;;
18338;SDS011;9295;44.484;11.240;2023-04-01T14:16:21;2.90;;;1.77;;
18338;SDS011;9295;44.484;11.240;2023-04-01T14:19:17;4.43;;;2.47;;
18338;SDS011;9295;44.484;11.240;2023-04-01T14:21:56;3.53;;;2.10;;
18338;SDS011;9295;44.484;11.240;2023-04-01T14:24:42;5.17;;;2.37;;
18338;SDS011;9295;44.484;11.240;2023-04-01T14:27:26;4.47;;;2.30;;
18338;SDS011;9295;44.484;11.240;2023-04-01T14:33:05;4.83;;;2.30;;
18338;SDS011;9295;44.484;11.240;2023-04-01T14:35:46;5.00;;;2.40;;
18338;SDS011;9295;44.484;11.240;2023-04-01T14:41:25;4.73;;;2.33;;
18338;SDS011;9295;44.484;11.240;2023-04-01T14:44:24;4.27;;;3.07;;
18338;SDS011;9295;44.484;11.240;2023-04-01T14:47:11;5.13;;;2.43;;
18338;SDS011;9295;44.484;11.240;2023-04-01T14:50:05;5.40;;;2.50;;
18338;SDS011;9295;44.484;11.240;2023-04-01T14:52:38;6.47;;;2.57;;
18338;SDS011;9295;44.484;11.240;2023-04-01T14:55:26;3.17;;;2.30;;
18338;SDS011;9295;44.484;11.240;2023-04-01T14:57:58;5.60;;;2.20;;
18338;SDS011;9295;44.484;11.240;2023-04-01T15:00:39;4.00;;;2.37;;
18338;SDS011;9295;44.484;11.240;2023-04-01T15:03:17;4.50;;;2.80;;
18338;SDS011;9295;44.484;11.240;2023-04-01T15:05:51;4.00;;;2.30;;
18338;SDS011;9295;44.484;11.240;2023-04-01T15:08:24;4.30;;;2.60;;
18338;SDS011;9295;44.484;11.240;2023-04-01T15:17:13;3.20;;;2.20;;
18338;SDS011;9295;44.484;11.240;2023-04-01T15:19:57;3.60;;;2.00;;
18338;SDS011;9295;44.484;11.240;2023-04-01T15:22:42;8.70;;;2.73;;
18338;SDS011;9295;44.484;11.240;2023-04-01T15:25:30;6.00;;;2.53;;
18338;SDS011;9295;44.484;11.240;2023-04-01T15:28:08;3.50;;;2.30;;
18338;SDS011;9295;44.484;11.240;2023-04-01T15:30:47;6.10;;;2.70;;
18338;SDS011;9295;44.484;11.240;2023-04-01T15:33:32;4.60;;;2.37;;
18338;SDS011;9295;44.484;11.240;2023-04-01T15:36:17;4.53;;;2.40;;
18338;SDS011;9295;44.484;11.240;2023-04-01T15:38:53;4.43;;;2.30;;
18338;SDS011;9295;44.484;11.240;2023-04-01T15:41:34;7.40;;;2.70;;
18338;SDS011;9295;44.484;11.240;2023-04-01T15:47:07;8.60;;;2.87;;
18338;SDS011;9295;44.484;11.240;2023-04-01T15:53:17;13.77;;;3.17;;
18338;SDS011;9295;44.484;11.240;2023-04-01T15:56:09;11.10;;;3.27;;
18338;SDS011;9295;44.484;11.240;2023-04-01T15:59:03;13.50;;;3.83;;
18338;SDS011;9295;44.484;11.240;2023-04-01T16:01:43;21.80;;;4.20;;
18338;SDS011;9295;44.484;11.240;2023-04-01T16:04:26;10.77;;;2.87;;
18338;SDS011;9295;44.484;11.240;2023-04-01T16:07:10;25.37;;;4.40;;
18338;SDS011;9295;44.484;11.240;2023-04-01T16:10:09;7.50;;;2.63;;
18338;SDS011;9295;44.484;11.240;2023-04-01T16:12:53;11.77;;;3.50;;
18338;SDS011;9295;44.484;11.240;2023-04-01T16:15:39;9.43;;;2.87;;
18338;SDS011;9295;44.484;11.240;2023-04-01T16:18:19;10.87;;;2.90;;
18338;SDS011;9295;44.484;11.240;2023-04-01T16:21:01;14.77;;;3.40;;
18338;SDS011;9295;44.484;11.240;2023-04-01T16:23:36;11.83;;;2.87;;
18338;SDS011;9295;44.484;11.240;2023-04-01T16:26:08;5.80;;;2.30;;
18338;SDS011;9295;44.484;11.240;2023-04-01T16:28:44;8.03;;;2.23;;
18338;SDS011;9295;44.484;11.240;2023-04-01T16:31:26;6.40;;;2.00;;
18338;SDS011;9295;44.484;11.240;2023-04-01T16:34:03;4.23;;;1.90;;
18338;SDS011;9295;44.484;11.240;2023-04-01T16:36:37;5.13;;;2.00;;
18338;SDS011;9295;44.484;11.240;2023-04-01T16:39:20;4.53;;;1.70;;
18338;SDS011;9295;44.484;11.240;2023-04-01T16:41:59;3.80;;;1.67;;
18338;SDS011;9295;44.484;11.240;2023-04-01T16:44:44;7.27;;;2.20;;
18338;SDS011;9295;44.484;11.240;2023-04-01T16:47:18;4.07;;;1.80;;
18338;SDS011;9295;44.484;11.240;2023-04-01T16:49:50;5.50;;;1.90;;
18338;SDS011;9295;44.484;11.240;2023-04-01T16:52:34;6.27;;;2.00;;
18338;SDS011;9295;44.484;11.240;2023-04-01T16:55:14;4.03;;;1.57;;
18338;SDS011;9295;44.484;11.240;2023-04-01T16:57:46;4.90;;;1.80;;
18338;SDS011;9295;44.484;11.240;2023-04-01T17:00:22;5.10;;;1.80;;
18338;SDS011;9295;44.484;11.240;2023-04-01T17:02:57;6.80;;;2.00;;
18338;SDS011;9295;44.484;11.240;2023-04-01T17:05:40;5.00;;;1.80;;
18338;SDS011;9295;44.484;11.240;2023-04-01T17:08:19;12.80;;;1.90;;
18338;SDS011;9295;44.484;11.240;2023-04-01T17:10:58;4.10;;;1.50;;
18338;SDS011;9295;44.484;11.240;2023-04-01T17:13:38;6.50;;;2.60;;
18338;SDS011;9295;44.484;11.240;2023-04-01T17:16:20;4.77;;;1.70;;
18338;SDS011;9295;44.484;11.240;2023-04-01T17:19:08;6.37;;;1.83;;
18338;SDS011;9295;44.484;11.240;2023-04-01T17:21:49;5.50;;;2.10;;
18338;SDS011;9295;44.484;11.240;2023-04-01T17:24:31;5.50;;;1.70;;
18338;SDS011;9295;44.484;11.240;2023-04-01T17:27:20;3.30;;;1.60;;
18338;SDS011;9295;44.484;11.240;2023-04-01T17:30:05;4.43;;;1.73;;
18338;SDS011;9295;44.484;11.240;2023-04-01T17:32:51;5.60;;;1.77;;
18338;SDS011;9295;44.484;11.240;2023-04-01T17:35:30;5.70;;;1.90;;
18338;SDS011;9295;44.484;11.240;2023-04-01T17:38:06;4.63;;;2.10;;
18338;SDS011;9295;44.484;11.240;2023-04-01T17:40:48;4.07;;;1.90;;
18338;SDS011;9295;44.484;11.240;2023-04-01T17:43:28;3.60;;;1.53;;
18338;SDS011;9295;44.484;11.240;2023-04-01T17:46:10;3.30;;;1.70;;
18338;SDS011;9295;44.484;11.240;2023-04-01T17:48:56;4.53;;;2.00;;
18338;SDS011;9295;44.484;11.240;2023-04-01T17:51:40;3.63;;;2.00;;
18338;SDS011;9295;44.484;11.240;2023-04-01T17:54:20;5.70;;;2.50;;